Time;durP1;ratioP1;P1;durP2;ratioP2;P2;SDS_P1;SDS_P2;PMS_P1;PMS_P2;Temp;Humidity;BMP_temperature;BMP_pressure;BME280_temperature;BME280_humidity;BME280_pressure;Samples;Min_cycle;Max_cycle;Signal;HPM_P1;HPM_P2
2024/04/06 00:01:15;;;;;;;17.85;8.13;;;16.20;82.70;;;;;;5074903;28;20441;-74
2024/04/06 00:03:41;;;;;;;20.15;9.23;;;16.10;82.60;;;;;;5074840;28;20099;-74
2024/04/06 00:06:07;;;;;;;23.23;9.65;;;16.10;82.70;;;;;;5074736;28;20036;-74
2024/04/06 00:08:33;;;;;;;16.80;8.98;;;16.10;82.80;;;;;;5075168;28;20109;-74
2024/04/06 00:10:59;;;;;;;17.38;10.02;;;16.10;82.90;;;;;;5074450;28;20467;-75
2024/04/06 00:13:25;;;;;;;17.13;9.52;;;16.10;83.00;;;;;;5074755;28;20076;-73
2024/04/06 00:15:50;;;;;;;18.67;9.68;;;16.00;82.80;;;;;;5074573;28;20040;-75
2024/04/06 00:18:16;;;;;;;19.13;9.85;;;16.00;82.90;;;;;;5074754;28;20116;-73
2024/04/06 00:20:42;;;;;;;17.45;9.23;;;15.90;82.90;;;;;;5074708;28;20472;-74
2024/04/06 00:23:08;;;;;;;18.95;9.57;;;15.90;83.10;;;;;;5077976;28;20138;-74
2024/04/06 00:25:34;;;;;;;16.67;9.20;;;15.80;83.00;;;;;;5075009;28;20063;-73
2024/04/06 00:27:59;;;;;;;20.90;9.63;;;15.80;83.20;;;;;;5074007;28;20036;-74
2024/04/06 00:30:25;;;;;;;16.35;9.25;;;15.80;83.30;;;;;;5074344;28;20403;-73
2024/04/06 00:32:51;;;;;;;20.55;9.57;;;15.80;83.50;;;;;;5074162;28;20559;-74
2024/04/06 00:35:17;;;;;;;19.45;9.80;;;15.80;83.50;;;;;;5073778;28;20085;-74
2024/04/06 00:37:43;;;;;;;19.65;9.65;;;15.70;83.60;;;;;;5074093;28;20040;-74
2024/04/06 00:40:09;;;;;;;17.08;9.32;;;15.70;83.70;;;;;;5073966;28;20037;-74
2024/04/06 00:42:35;;;;;;;18.73;9.20;;;15.70;83.80;;;;;;5073940;28;20439;-74
2024/04/06 00:45:00;;;;;;;17.77;8.90;;;15.60;83.50;;;;;;5073660;28;20036;-74
2024/04/06 00:47:26;;;;;;;18.30;8.45;;;15.50;83.60;;;;;;5073795;28;20082;-75
2024/04/06 00:49:52;;;;;;;13.85;7.45;;;15.50;83.70;;;;;;5073514;28;20489;-74
2024/04/06 00:52:18;;;;;;;17.40;7.47;;;15.50;83.60;;;;;;5073619;28;20488;-74
2024/04/06 00:54:44;;;;;;;15.02;7.82;;;15.50;83.80;;;;;;5073651;28;20028;-74
2024/04/06 00:57:09;;;;;;;14.18;7.43;;;15.40;83.60;;;;;;5073715;28;20620;-73
2024/04/06 00:59:37;;;;;;;14.55;7.43;;;15.40;83.60;;;;;;5073431;28;20040;-74
2024/04/06 01:02:03;;;;;;;19.95;7.63;;;15.40;83.50;;;;;;5073425;28;20064;-73
2024/04/06 01:04:29;;;;;;;13.85;6.95;;;15.40;83.40;;;;;;5073510;28;20187;-74
2024/04/06 01:06:56;;;;;;;12.52;7.13;;;15.40;83.40;;;;;;5073373;28;20059;-74
2024/04/06 01:09:23;;;;;;;18.25;7.70;;;15.40;83.40;;;;;;5073618;28;20108;-75
2024/04/06 01:11:48;;;;;;;14.90;7.22;;;15.30;83.40;;;;;;5073411;28;20524;-74
2024/04/06 01:14:15;;;;;;;13.45;7.05;;;15.40;83.70;;;;;;5073573;28;20063;-75
2024/04/06 01:16:41;;;;;;;14.10;7.22;;;15.40;83.40;;;;;;5072251;28;20429;-74
2024/04/06 01:19:06;;;;;;;12.80;7.22;;;15.40;83.50;;;;;;5073174;28;20029;-73
2024/04/06 01:21:32;;;;;;;19.25;7.50;;;15.30;83.50;;;;;;5073316;28;20384;-75
2024/04/06 01:24:01;;;;;;;18.25;7.20;;;15.30;83.50;;;;;;5073094;28;20062;-74
2024/04/06 01:26:27;;;;;;;16.45;7.22;;;15.30;83.50;;;;;;5073156;28;20029;-74
2024/04/06 01:28:53;;;;;;;13.20;6.53;;;15.30;83.60;;;;;;5073088;28;20373;-73
2024/04/06 01:31:18;;;;;;;11.90;6.38;;;15.30;83.60;;;;;;5072814;28;20044;-74
2024/04/06 01:33:50;;;;;;;18.05;7.03;;;15.30;83.60;;;;;;5072748;28;20071;-76
2024/04/06 01:36:16;;;;;;;14.13;6.45;;;15.30;83.50;;;;;;5072931;28;20048;-73
2024/04/06 01:38:42;;;;;;;16.88;6.20;;;15.30;83.50;;;;;;5054793;28;20440;-73
2024/04/06 01:41:08;;;;;;;11.32;5.90;;;15.30;83.40;;;;;;5072937;28;20072;-74
2024/04/06 01:43:33;;;;;;;11.35;6.40;;;15.30;83.30;;;;;;5072827;28;20415;-74
2024/04/06 01:45:59;;;;;;;11.35;5.68;;;15.30;83.00;;;;;;5072488;28;20032;-75
2024/04/06 01:48:25;;;;;;;13.23;5.75;;;15.30;83.00;;;;;;5072773;28;20040;-73
2024/04/06 01:50:51;;;;;;;12.73;6.05;;;15.30;82.90;;;;;;5072551;28;20484;-74
2024/04/06 01:53:16;;;;;;;14.07;6.60;;;15.20;82.50;;;;;;5072600;28;20477;-73
2024/04/06 01:55:42;;;;;;;11.38;5.40;;;15.20;82.60;;;;;;5072405;28;20051;-74
2024/04/06 01:58:08;;;;;;;11.05;5.93;;;15.20;82.60;;;;;;5072570;28;20025;-73
2024/04/06 02:00:33;;;;;;;11.63;6.40;;;15.20;82.50;;;;;;5072536;28;20036;-75
2024/04/06 02:03:00;;;;;;;12.68;6.38;;;15.10;82.70;;;;;;5072302;28;20476;-73
2024/04/06 02:05:27;;;;;;;14.05;6.00;;;15.10;82.70;;;;;;5072830;28;20036;-74
2024/04/06 02:07:53;;;;;;;12.10;6.53;;;15.00;82.90;;;;;;5072398;28;20556;-73
2024/04/06 02:10:18;;;;;;;12.98;6.30;;;15.00;83.00;;;;;;5071100;28;20126;-74
2024/04/06 02:12:44;;;;;;;14.73;6.60;;;14.90;82.90;;;;;;5072455;28;20116;-74
2024/04/06 02:15:10;;;;;;;12.48;5.90;;;14.80;83.00;;;;;;5072411;28;20033;-74
2024/04/06 02:17:37;;;;;;;14.05;6.20;;;14.80;83.10;;;;;;5072425;28;20056;-73
2024/04/06 02:20:03;;;;;;;14.43;6.43;;;14.80;83.10;;;;;;5072464;28;20020;-76
2024/04/06 02:22:29;;;;;;;11.73;5.85;;;14.80;83.30;;;;;;5072542;28;20449;-75
2024/04/06 02:24:55;;;;;;;12.50;6.32;;;14.70;83.20;;;;;;5072378;28;20035;-74
2024/04/06 02:27:21;;;;;;;18.25;6.53;;;14.70;83.40;;;;;;5072138;28;20159;-73
2024/04/06 02:29:46;;;;;;;11.90;6.35;;;14.70;83.50;;;;;;5072207;28;20040;-74
2024/04/06 02:32:12;;;;;;;12.23;6.38;;;14.60;83.60;;;;;;5072095;28;20559;-74
2024/04/06 02:34:38;;;;;;;15.60;6.10;;;14.60;83.70;;;;;;5071986;28;20044;-71
2024/04/06 02:37:03;;;;;;;14.82;6.28;;;14.60;83.70;;;;;;5072207;28;20107;-74
2024/04/06 02:39:29;;;;;;;17.65;6.68;;;14.60;84.00;;;;;;5072165;28;20032;-73
2024/04/06 02:41:55;;;;;;;12.13;5.75;;;14.50;83.90;;;;;;5072336;28;20029;-74
2024/04/06 02:44:21;;;;;;;13.40;6.50;;;14.50;84.00;;;;;;5072293;28;20436;-73
2024/04/06 02:46:46;;;;;;;12.55;6.32;;;14.60;84.00;;;;;;5071992;28;20044;-73
2024/04/06 02:49:12;;;;;;;14.45;6.45;;;14.60;83.90;;;;;;5072887;28;20048;-74
2024/04/06 02:51:38;;;;;;;16.77;6.47;;;14.70;84.10;;;;;;5076191;28;20063;-74
2024/04/06 02:54:04;;;;;;;11.15;6.47;;;14.70;83.90;;;;;;5076091;28;20032;-73
2024/04/06 02:56:30;;;;;;;15.32;6.65;;;14.70;84.10;;;;;;5076203;28;20045;-74
2024/04/06 02:58:55;;;;;;;14.82;6.57;;;14.60;83.80;;;;;;5076513;28;20077;-75
2024/04/06 03:01:21;;;;;;;14.85;6.28;;;14.60;83.90;;;;;;5077425;28;20032;-74
2024/04/06 03:03:47;;;;;;;12.63;6.93;;;14.60;83.90;;;;;;5079051;28;20036;-73
2024/04/06 03:06:12;;;;;;;12.90;6.70;;;14.70;84.00;;;;;;5082935;28;20064;-74
2024/04/06 03:08:38;;;;;;;11.77;6.28;;;14.70;84.00;;;;;;5076291;28;20033;-74
2024/04/06 03:11:04;;;;;;;13.32;6.82;;;14.70;84.10;;;;;;5075973;28;20108;-74
2024/04/06 03:13:30;;;;;;;12.52;6.20;;;14.70;84.20;;;;;;5075820;28;20483;-75
2024/04/06 03:15:56;;;;;;;14.15;7.72;;;14.70;84.30;;;;;;5075728;28;20392;-73
2024/04/06 03:18:22;;;;;;;13.95;6.93;;;14.70;84.30;;;;;;5074372;28;20438;-73
2024/04/06 03:20:47;;;;;;;13.57;7.07;;;14.60;84.50;;;;;;5075722;28;20028;-74
2024/04/06 03:23:13;;;;;;;13.27;7.55;;;14.50;84.50;;;;;;5075810;28;20028;-74
2024/04/06 03:25:39;;;;;;;13.77;7.57;;;14.50;84.70;;;;;;5075424;28;20125;-74
2024/04/06 03:28:04;;;;;;;14.15;6.82;;;14.40;84.90;;;;;;5075334;28;20064;-74
2024/04/06 03:30:30;;;;;;;17.42;8.00;;;14.40;85.40;;;;;;5075354;28;20113;-74
2024/04/06 03:32:56;;;;;;;17.63;10.30;;;14.40;85.50;;;;;;5075218;28;20040;-73
2024/04/06 03:35:22;;;;;;;15.05;8.43;;;14.30;85.50;;;;;;5075332;28;20041;-74
2024/04/06 03:37:48;;;;;;;17.90;8.30;;;14.20;86.00;;;;;;5075520;28;20046;-73
2024/04/06 03:40:15;;;;;;;15.35;7.90;;;14.20;86.40;;;;;;5075330;28;20060;-74
2024/04/06 03:42:41;;;;;;;18.85;7.78;;;14.10;86.50;;;;;;5075148;28;20033;-74
2024/04/06 03:45:10;;;;;;;17.73;8.50;;;14.10;86.60;;;;;;5074915;28;20384;-74
2024/04/06 03:47:35;;;;;;;15.48;8.00;;;14.10;86.80;;;;;;5075262;28;20104;-74
2024/04/06 03:50:01;;;;;;;14.55;7.65;;;14.10;86.90;;;;;;5074825;28;20119;-74
2024/04/06 03:52:27;;;;;;;15.18;7.50;;;14.20;86.90;;;;;;5075281;28;20043;-75
2024/04/06 03:54:53;;;;;;;14.90;7.00;;;14.20;87.00;;;;;;5075201;28;20412;-75
2024/04/06 03:57:18;;;;;;;13.23;7.45;;;14.20;86.90;;;;;;5075053;28;20064;-72
2024/04/06 03:59:44;;;;;;;15.45;7.95;;;14.20;86.90;;;;;;5074441;28;20029;-74
2024/04/06 04:02:10;;;;;;;12.77;7.65;;;14.20;87.10;;;;;;5075173;28;20036;-74
2024/04/06 04:04:35;;;;;;;14.35;7.35;;;14.20;87.40;;;;;;5074990;28;20024;-74
2024/04/06 04:07:02;;;;;;;13.45;6.93;;;14.20;87.20;;;;;;5074782;28;20128;-74
2024/04/06 04:09:27;;;;;;;14.13;7.57;;;14.20;87.30;;;;;;5074795;28;20025;-74
2024/04/06 04:11:53;;;;;;;12.70;7.47;;;14.10;87.30;;;;;;5074488;28;20475;-72
2024/04/06 04:14:19;;;;;;;15.80;7.63;;;14.10;87.60;;;;;;5074320;28;20033;-73
2024/04/06 04:16:44;;;;;;;16.60;7.65;;;14.10;87.60;;;;;;5074297;28;20056;-73
2024/04/06 04:19:11;;;;;;;14.75;7.75;;;14.10;88.00;;;;;;5074596;28;20036;-74
2024/04/06 04:21:36;;;;;;;15.05;7.53;;;14.10;87.70;;;;;;5074518;28;20064;-73
2024/04/06 04:24:02;;;;;;;15.48;8.07;;;14.10;88.10;;;;;;5074387;28;20060;-74
2024/04/06 04:26:28;;;;;;;18.90;7.90;;;14.10;87.80;;;;;;5074395;28;20113;-71
2024/04/06 04:28:53;;;;;;;15.65;7.97;;;14.10;87.90;;;;;;5074408;28;20111;-73
2024/04/06 04:31:19;;;;;;;13.73;8.00;;;14.20;87.90;;;;;;5074190;28;20400;-74
2024/04/06 04:33:45;;;;;;;14.98;7.20;;;14.20;87.90;;;;;;5074294;28;20541;-74
2024/04/06 04:36:12;;;;;;;11.68;7.43;;;14.30;88.40;;;;;;5096686;22;20534;-74
2024/04/06 04:38:39;;;;;;;14.80;7.35;;;14.20;87.60;;;;;;5094336;28;20032;-73
2024/04/06 04:41:04;;;;;;;15.27;8.27;;;14.20;87.80;;;;;;5094200;28;20066;-73
2024/04/06 04:43:30;;;;;;;14.40;7.43;;;14.20;87.80;;;;;;5094223;28;20060;-73
2024/04/06 04:45:56;;;;;;;15.43;8.40;;;14.20;87.90;;;;;;5094300;28;20036;-75
2024/04/06 04:48:23;;;;;;;15.23;7.72;;;14.10;88.00;;;;;;5095187;28;20028;-74
2024/04/06 04:50:50;;;;;;;14.70;9.00;;;14.10;88.10;;;;;;5097539;28;20059;-74
2024/04/06 04:53:15;;;;;;;11.05;6.78;;;14.10;88.30;;;;;;5094416;28;20050;-75
2024/04/06 04:55:41;;;;;;;13.75;6.95;;;14.20;88.00;;;;;;5092582;28;20044;-74
2024/04/06 04:58:08;;;;;;;11.48;6.85;;;14.20;87.80;;;;;;5094075;28;20032;-74
2024/04/06 05:00:34;;;;;;;14.18;6.95;;;14.30;87.50;;;;;;5093720;28;20031;-74
2024/04/06 05:03:00;;;;;;;12.77;6.65;;;14.30;87.40;;;;;;5093839;28;20387;-73
2024/04/06 05:05:26;;;;;;;13.15;6.88;;;14.30;87.30;;;;;;5093809;28;20036;-73
2024/04/06 05:07:52;;;;;;;13.00;6.05;;;14.40;87.10;;;;;;5093804;28;20168;-74
2024/04/06 05:10:17;;;;;;;13.32;6.85;;;14.40;86.90;;;;;;5093638;28;20051;-74
2024/04/06 05:12:43;;;;;;;13.05;7.07;;;14.40;86.90;;;;;;5093184;28;20403;-74
2024/04/06 05:15:09;;;;;;;12.63;6.43;;;14.50;86.90;;;;;;5093727;28;20032;-74
2024/04/06 05:17:36;;;;;;;13.57;6.22;;;14.50;86.70;;;;;;5093794;28;20379;-74
2024/04/06 05:20:05;;;;;;;12.77;6.18;;;14.50;86.50;;;;;;5093793;28;20028;-74
2024/04/06 05:22:34;;;;;;;18.15;6.53;;;14.50;86.30;;;;;;5093760;28;20044;-75
2024/04/06 05:25:00;;;;;;;12.40;6.88;;;14.50;86.00;;;;;;5093596;28;20206;-73
2024/04/06 05:27:26;;;;;;;9.75;6.05;;;14.50;86.10;;;;;;5093702;28;20066;-74
2024/04/06 05:29:51;;;;;;;12.13;6.80;;;14.50;86.20;;;;;;5093775;28;20210;-74
2024/04/06 05:32:17;;;;;;;12.73;6.20;;;14.50;86.10;;;;;;5093686;28;20518;-74
2024/04/06 05:34:43;;;;;;;18.88;8.23;;;14.50;86.10;;;;;;5093339;28;20040;-73
2024/04/06 05:37:08;;;;;;;14.02;7.20;;;14.60;86.10;;;;;;5093554;28;20491;-74
2024/04/06 05:39:34;;;;;;;14.60;6.65;;;14.70;85.80;;;;;;5093365;28;20059;-74
2024/04/06 05:42:00;;;;;;;12.82;6.70;;;14.70;85.60;;;;;;5093633;28;20032;-74
2024/04/06 05:44:25;;;;;;;13.13;6.88;;;14.90;85.40;;;;;;5093211;28;20446;-74
2024/04/06 05:46:51;;;;;;;13.07;6.72;;;15.00;85.00;;;;;;5093047;28;20024;-73
2024/04/06 05:49:17;;;;;;;18.23;7.05;;;15.10;84.70;;;;;;5093027;28;20127;-74
2024/04/06 05:51:43;;;;;;;12.77;6.78;;;15.40;84.20;;;;;;5093057;28;20044;-74
2024/04/06 05:54:09;;;;;;;13.88;6.60;;;16.00;83.20;;;;;;5092971;28;20051;-76
2024/04/06 05:56:34;;;;;;;14.13;6.90;;;16.70;81.50;;;;;;5093505;28;20032;-73
2024/04/06 05:59:00;;;;;;;15.50;6.82;;;17.20;79.90;;;;;;5092920;28;20032;-74
2024/04/06 06:01:26;;;;;;;11.98;6.05;;;17.40;79.40;;;;;;5093005;28;20047;-74
2024/04/06 06:03:52;;;;;;;12.95;5.75;;;17.70;78.70;;;;;;5093162;28;20061;-74
2024/04/06 06:06:18;;;;;;;13.48;6.13;;;17.90;77.80;;;;;;5093013;28;20114;-74
2024/04/06 06:08:43;;;;;;;11.88;5.85;;;18.00;78.00;;;;;;5092873;28;20028;-74
2024/04/06 06:11:09;;;;;;;10.82;5.75;;;18.30;76.60;;;;;;5092676;28;20040;-75
2024/04/06 06:13:35;;;;;;;17.65;6.60;;;18.80;75.90;;;;;;5092865;28;20492;-75
2024/04/06 06:16:02;;;;;;;14.07;6.97;;;19.20;74.80;;;;;;5092727;28;20070;-75
2024/04/06 06:18:27;;;;;;;11.13;5.88;;;19.80;73.50;;;;;;5092883;28;20039;-75
2024/04/06 06:20:53;;;;;;;12.20;6.05;;;20.00;72.20;;;;;;5093069;28;20111;-75
2024/04/06 06:23:19;;;;;;;12.85;6.63;;;20.20;71.10;;;;;;5093177;28;20042;-74
2024/04/06 06:25:44;;;;;;;15.07;7.43;;;20.40;70.50;;;;;;5093120;28;20047;-76
2024/04/06 06:28:10;;;;;;;12.23;6.28;;;20.50;69.60;;;;;;5093134;28;20445;-75
2024/04/06 06:30:40;;;;;;;16.17;5.97;;;21.00;68.80;;;;;;5093034;28;20051;-75
2024/04/06 06:33:05;;;;;;;10.52;6.22;;;21.60;67.40;;;;;;5092821;28;20112;-75
2024/04/06 06:35:31;;;;;;;11.32;5.20;;;22.10;66.10;;;;;;5092579;28;20131;-74
2024/04/06 06:37:57;;;;;;;16.40;9.15;;;22.80;64.20;;;;;;5092982;28;20024;-75
2024/04/06 06:40:22;;;;;;;10.80;6.15;;;23.10;62.60;;;;;;5092873;28;20040;-74
2024/04/06 06:42:48;;;;;;;14.10;6.30;;;23.30;60.90;;;;;;5092989;28;20028;-74
2024/04/06 06:45:14;;;;;;;12.75;6.32;;;23.40;60.50;;;;;;5092618;28;20471;-75
2024/04/06 06:47:40;;;;;;;12.63;6.10;;;23.50;60.30;;;;;;5092521;28;20051;-75
2024/04/06 06:50:06;;;;;;;15.23;5.93;;;23.30;60.50;;;;;;5092369;28;20068;-74
2024/04/06 06:52:31;;;;;;;12.75;6.47;;;23.10;60.80;;;;;;5092289;28;20062;-76
2024/04/06 06:54:57;;;;;;;9.57;5.82;;;22.50;61.30;;;;;;5092336;28;20040;-73
2024/04/06 06:57:23;;;;;;;9.80;5.35;;;21.90;62.20;;;;;;5092651;28;20039;-71
2024/04/06 06:59:48;;;;;;;10.25;5.43;;;21.70;62.60;;;;;;5092741;28;20115;-74
2024/04/06 07:02:14;;;;;;;12.75;5.85;;;21.50;62.60;;;;;;5092502;28;20032;-76
2024/04/06 07:04:40;;;;;;;11.90;6.13;;;21.70;61.50;;;;;;5090962;28;20028;-77
2024/04/06 07:07:05;;;;;;;11.27;5.75;;;22.40;60.20;;;;;;5092232;28;20028;-74
2024/04/06 07:09:31;;;;;;;10.20;5.80;;;22.90;59.60;;;;;;5092453;28;20501;-75
2024/04/06 07:11:57;;;;;;;16.63;6.70;;;23.50;58.70;;;;;;5092262;28;20589;-73
2024/04/06 07:14:22;;;;;;;12.13;6.50;;;24.00;57.80;;;;;;5092051;28;20069;-73
2024/04/06 07:16:49;;;;;;;15.85;6.20;;;24.40;56.90;;;;;;5092335;28;20537;-74
2024/04/06 07:19:16;;;;;;;12.25;5.18;;;24.60;56.60;;;;;;5092821;28;20039;-74
2024/04/06 07:21:42;;;;;;;11.15;5.68;;;25.00;56.00;;;;;;5092392;28;20024;-72
2024/04/06 07:24:07;;;;;;;11.52;6.35;;;25.30;55.40;;;;;;5092293;28;20054;-73
2024/04/06 07:26:33;;;;;;;18.20;6.47;;;25.70;54.80;;;;;;5092080;28;20063;-74
2024/04/06 07:28:59;;;;;;;15.65;6.30;;;25.70;54.40;;;;;;5092094;28;20033;-71
2024/04/06 07:31:25;;;;;;;11.07;5.93;;;25.60;54.00;;;;;;5092068;28;20044;-74
2024/04/06 07:33:51;;;;;;;14.82;6.07;;;24.70;54.80;;;;;;5091962;28;20491;-73
2024/04/06 07:36:17;;;;;;;12.85;6.40;;;23.70;56.10;;;;;;5093985;28;20086;-74
2024/04/06 07:38:44;;;;;;;11.30;6.57;;;23.10;57.10;;;;;;5095572;28;20052;-72
2024/04/06 07:41:10;;;;;;;16.15;6.65;;;22.60;57.90;;;;;;5095520;28;20121;-74
2024/04/06 07:43:36;;;;;;;14.38;6.70;;;22.20;58.60;;;;;;5095511;28;20059;-73
2024/04/06 07:46:02;;;;;;;11.30;6.82;;;21.70;59.20;;;;;;5095674;28;20036;-72
2024/04/06 07:48:28;;;;;;;11.73;6.60;;;21.30;60.00;;;;;;5095423;28;20030;-72
2024/04/06 07:50:54;;;;;;;12.77;7.10;;;21.00;60.30;;;;;;5095343;28;20048;-73
2024/04/06 07:53:20;;;;;;;13.90;6.50;;;20.90;61.00;;;;;;5095236;28;20027;-74
2024/04/06 07:55:46;;;;;;;11.43;6.45;;;20.70;61.60;;;;;;5095275;28;20182;-71
2024/04/06 07:58:12;;;;;;;13.30;8.02;;;20.60;62.20;;;;;;5095131;28;20116;-71
2024/04/06 08:00:38;;;;;;;21.40;8.00;;;20.60;62.50;;;;;;5095188;28;20400;-71
2024/04/06 08:03:06;;;;;;;12.80;6.32;;;20.50;62.50;;;;;;5095052;28;20043;-71
2024/04/06 08:05:32;;;;;;;10.55;5.70;;;20.50;62.60;;;;;;5094871;28;20484;-71
2024/04/06 08:07:59;;;;;;;12.07;5.90;;;20.40;62.50;;;;;;5095056;28;20073;-72
2024/04/06 08:10:24;;;;;;;10.77;5.22;;;20.40;62.90;;;;;;5094872;28;20510;-71
2024/04/06 08:12:53;;;;;;;11.40;6.13;;;20.50;63.10;;;;;;5094941;28;20033;-71
2024/04/06 08:15:19;;;;;;;11.90;5.32;;;20.50;62.60;;;;;;5094757;28;20048;-72
2024/04/06 08:17:48;;;;;;;14.23;5.90;;;20.40;62.90;;;;;;5094839;28;20036;-73
2024/04/06 08:20:14;;;;;;;11.57;5.88;;;20.40;63.20;;;;;;5094488;28;20368;-75
2024/04/06 08:22:41;;;;;;;13.95;7.90;;;20.40;63.20;;;;;;5094949;28;20024;-73
2024/04/06 08:25:09;;;;;;;11.65;5.95;;;20.40;63.20;;;;;;5095160;28;20115;-77
2024/04/06 08:27:36;;;;;;;10.35;5.28;;;20.40;63.20;;;;;;5094789;28;20035;-73
2024/04/06 08:30:04;;;;;;;16.55;5.68;;;20.30;63.30;;;;;;5094877;28;20155;-74
2024/04/06 08:32:39;;;;;;;12.60;5.88;;;20.20;63.20;;;;;;5094478;28;20744;-73
2024/04/06 08:35:11;;;;;;;13.30;5.47;;;20.20;63.30;;;;;;5094144;28;20052;-75
2024/04/06 08:37:37;;;;;;;11.32;5.00;;;20.30;63.40;;;;;;5094925;28;20040;-79
2024/04/06 08:40:04;;;;;;;14.90;6.38;;;20.20;63.30;;;;;;5094685;28;20090;-80
2024/04/06 08:42:30;;;;;;;13.27;5.93;;;20.30;63.90;;;;;;5094590;28;20092;-80
2024/04/06 08:44:56;;;;;;;11.70;4.55;;;20.30;64.10;;;;;;5094989;28;20399;-74
2024/04/06 08:47:22;;;;;;;11.00;4.90;;;20.40;63.60;;;;;;5075887;28;20119;-77
2024/04/06 08:49:49;;;;;;;13.32;6.03;;;20.40;63.60;;;;;;5095496;28;20431;-77
2024/04/06 08:52:15;;;;;;;15.70;5.53;;;20.30;63.60;;;;;;5094669;28;20036;-80
2024/04/06 08:54:42;;;;;;;15.45;5.18;;;20.30;63.40;;;;;;5094328;28;20154;-79
2024/04/06 08:57:08;;;;;;;10.05;4.35;;;20.40;63.30;;;;;;5094145;28;20154;-76
2024/04/06 08:59:34;;;;;;;10.75;4.35;;;20.30;62.80;;;;;;5094043;28;20086;-78
2024/04/06 09:02:00;;;;;;;10.50;4.50;;;20.30;62.80;;;;;;5092781;28;20027;-76
2024/04/06 09:04:26;;;;;;;11.50;4.90;;;20.20;62.70;;;;;;5093776;28;20253;-78
2024/04/06 09:06:52;;;;;;;13.75;5.07;;;20.20;63.10;;;;;;5075341;28;20127;-78
2024/04/06 09:09:18;;;;;;;11.10;4.30;;;20.20;63.60;;;;;;5093701;28;20040;-77
2024/04/06 09:11:44;;;;;;;10.45;4.30;;;20.30;63.40;;;;;;5092516;28;20403;-76
2024/04/06 09:14:10;;;;;;;11.32;4.97;;;20.20;63.10;;;;;;5075472;28;20097;-78
2024/04/06 09:16:37;;;;;;;10.00;4.38;;;20.30;63.50;;;;;;5093813;28;20029;-78
2024/04/06 09:19:03;;;;;;;9.35;3.80;;;20.30;63.00;;;;;;5093598;28;20028;-77
2024/04/06 09:21:32;;;;;;;11.27;3.67;;;20.40;62.80;;;;;;5094002;28;20399;-77
2024/04/06 09:24:00;;;;;;;7.45;3.40;;;20.40;62.20;;;;;;5093803;28;20028;-77
2024/04/06 09:26:33;;;;;;;9.32;4.05;;;20.40;62.10;;;;;;5093611;28;20175;-77
2024/04/06 09:28:59;;;;;;;10.32;3.70;;;20.40;62.40;;;;;;5093516;28;20067;-78
2024/04/06 09:31:27;;;;;;;7.28;3.85;;;20.40;62.30;;;;;;5093335;28;20072;-78
2024/04/06 09:33:55;;;;;;;9.20;4.00;;;20.50;62.60;;;;;;5093226;28;20031;-78
2024/04/06 09:36:21;;;;;;;12.02;5.00;;;20.60;62.60;;;;;;5093353;28;20555;-76
2024/04/06 09:38:51;;;;;;;13.73;4.72;;;20.70;62.40;;;;;;5093309;28;20145;-78
2024/04/06 09:41:19;;;;;;;9.80;3.88;;;20.80;61.90;;;;;;5074943;28;20032;-79
2024/04/06 09:43:54;;;;;;;9.30;3.47;;;20.80;61.40;;;;;;5093431;28;20043;-77
2024/04/06 09:46:20;;;;;;;9.00;3.63;;;20.90;61.40;;;;;;5094157;28;20048;-78
2024/04/06 09:48:47;;;;;;;7.10;3.60;;;20.90;61.10;;;;;;5094567;28;20039;-77
2024/04/06 09:51:13;;;;;;;8.63;3.08;;;21.00;61.40;;;;;;5076647;28;20040;-77
2024/04/06 09:53:41;;;;;;;10.10;4.05;;;21.10;61.10;;;;;;5093943;28;20028;-80
2024/04/06 09:56:09;;;;;;;5.90;2.47;;;21.10;60.80;;;;;;5093248;28;20035;-78
2024/04/06 09:58:36;;;;;;;7.88;2.88;;;21.10;59.60;;;;;;5093008;28;20038;-77
2024/04/06 10:01:15;;;;;;;5.00;2.22;;;21.10;58.70;;;;;;5094131;28;20421;-79
2024/04/06 10:03:46;;;;;;;5.75;2.20;;;21.20;59.30;;;;;;5093128;28;20032;-77
2024/04/06 10:06:16;;;;;;;23.90;3.58;;;21.20;58.80;;;;;;5093502;28;20383;-77
2024/04/06 10:08:50;;;;;;;9.65;2.83;;;21.30;58.50;;;;;;5093366;28;20036;-81
2024/04/06 10:11:21;;;;;;;6.95;2.47;;;21.50;59.10;;;;;;5074619;28;20040;-77
2024/04/06 10:14:05;;;;;;;8.40;3.17;;;21.60;58.20;;;;;;5092622;28;20062;-78
2024/04/06 10:16:38;;;;;;;8.65;4.32;;;21.70;57.60;;;;;;5092778;28;20047;-77
2024/04/06 10:19:08;;;;;;;7.53;2.92;;;21.80;57.70;;;;;;5074669;28;20035;-76
2024/04/06 10:21:35;;;;;;;10.57;2.63;;;21.80;57.40;;;;;;5093019;28;20128;-77
2024/04/06 10:24:13;;;;;;;6.32;2.78;;;21.90;57.50;;;;;;5074617;28;20373;-76
2024/04/06 10:26:54;;;;;;;8.55;2.42;;;22.00;57.20;;;;;;5092823;28;20361;-78
2024/04/06 10:29:20;;;;;;;7.97;2.72;;;22.10;56.60;;;;;;5074306;28;20497;-76
2024/04/06 10:31:46;;;;;;;7.05;2.20;;;22.10;56.40;;;;;;5074131;28;20095;-79
2024/04/06 10:34:13;;;;;;;5.88;2.45;;;22.20;56.70;;;;;;5092568;28;20040;-77
2024/04/06 10:36:40;;;;;;;6.10;3.00;;;22.30;56.80;;;;;;5092097;28;20055;-76
2024/04/06 10:39:07;;;;;;;4.70;2.00;;;22.40;56.30;;;;;;5092571;28;20403;-77
2024/04/06 10:41:44;;;;;;;5.18;2.22;;;22.40;55.70;;;;;;5092502;28;20111;-77
2024/04/06 10:44:10;;;;;;;5.28;1.67;;;22.50;55.40;;;;;;5092796;28;20036;-77
2024/04/06 10:46:36;;;;;;;8.27;2.30;;;22.50;55.00;;;;;;5074192;28;20063;-76
2024/04/06 10:49:11;;;;;;;5.00;1.70;;;22.60;54.40;;;;;;5092468;28;20064;-74
2024/04/06 10:51:37;;;;;;;5.55;1.80;;;22.70;54.30;;;;;;5092356;28;20085;-76
2024/04/06 10:54:03;;;;;;;4.00;1.70;;;22.70;53.60;;;;;;5092759;28;20115;-78
2024/04/06 10:56:29;;;;;;;4.75;1.92;;;22.80;53.30;;;;;;5092458;28;20032;-77
2024/04/06 10:58:55;;;;;;;5.53;1.58;;;22.90;53.50;;;;;;5092577;28;20460;-76
2024/04/06 11:01:23;;;;;;;6.55;2.20;;;23.00;53.20;;;;;;5092482;28;20078;-78
2024/04/06 11:03:50;;;;;;;6.18;2.30;;;23.10;53.30;;;;;;5092424;28;20036;-76
2024/04/06 11:06:15;;;;;;;7.13;2.50;;;23.20;53.50;;;;;;5074056;28;20032;-77
2024/04/06 11:08:41;;;;;;;6.35;2.35;;;23.30;53.40;;;;;;5074111;28;20042;-77
2024/04/06 11:11:12;;;;;;;6.25;2.45;;;23.30;53.80;;;;;;5094563;28;20108;-77
2024/04/06 11:13:39;;;;;;;9.10;2.63;;;23.40;54.10;;;;;;5096460;28;20044;-76
2024/04/06 11:16:06;;;;;;;5.25;1.90;;;23.60;54.90;;;;;;5077955;28;20032;-76
2024/04/06 11:18:39;;;;;;;5.95;2.70;;;23.70;54.00;;;;;;5096217;28;20512;-77
2024/04/06 11:21:12;;;;;;;;;;;23.70;54.10;;;;;;5096850;28;20063;-76
2024/04/06 11:23:38;;;;;;;6.68;2.90;;;23.60;52.50;;;;;;5096266;28;20256;-79
2024/04/06 11:26:05;;;;;;;10.75;3.85;;;23.60;54.60;;;;;;5096007;28;20174;-72
2024/04/06 11:28:31;;;;;;;6.78;3.10;;;23.80;54.60;;;;;;5096100;28;20035;-72
2024/04/06 11:30:58;;;;;;;9.88;3.42;;;23.90;54.70;;;;;;5077774;28;20044;-74
2024/04/06 11:33:24;;;;;;;9.40;3.15;;;24.00;54.50;;;;;;5095954;28;20349;-75
2024/04/06 11:35:50;;;;;;;6.05;2.35;;;24.10;54.60;;;;;;5095715;28;20051;-76
2024/04/06 11:38:16;;;;;;;6.88;2.53;;;24.20;54.30;;;;;;5095897;28;20436;-77
2024/04/06 11:40:47;;;;;;;6.18;2.03;;;24.20;54.00;;;;;;5095830;28;20418;-73
2024/04/06 11:43:17;;;;;;;10.70;2.67;;;24.30;53.20;;;;;;5096030;28;20060;-80
2024/04/06 11:45:42;;;;;;;8.23;3.00;;;24.30;53.80;;;;;;5095859;28;20464;-75
2024/04/06 11:48:10;;;;;;;8.43;3.05;;;24.40;55.60;;;;;;5095335;28;20042;-75
2024/04/06 11:50:36;;;;;;;7.93;3.00;;;24.40;56.30;;;;;;5092465;28;20101;-79
2024/04/06 11:53:02;;;;;;;9.20;3.42;;;24.50;56.30;;;;;;5085139;28;20040;-77
2024/04/06 11:55:28;;;;;;;8.02;2.97;;;24.60;57.40;;;;;;5094139;28;20032;-75
2024/04/06 11:57:54;;;;;;;8.23;2.92;;;24.60;56.80;;;;;;5095594;28;20026;-76
2024/04/06 12:00:20;;;;;;;5.70;2.92;;;24.80;57.70;;;;;;5095411;28;20032;-76
2024/04/06 12:02:45;;;;;;;10.35;3.22;;;24.90;57.70;;;;;;5095174;28;20034;-77
2024/04/06 12:05:12;;;;;;;6.85;3.10;;;25.00;57.30;;;;;;5094954;28;20071;-78
2024/04/06 12:07:39;;;;;;;12.45;3.67;;;25.00;57.30;;;;;;5095360;28;20035;-79
2024/04/06 12:10:05;;;;;;;8.52;3.63;;;25.00;57.80;;;;;;5095312;28;20024;-73
2024/04/06 12:12:32;;;;;;;8.65;3.60;;;25.10;57.70;;;;;;5095138;28;20518;-83
2024/04/06 12:14:57;;;;;;;12.00;2.83;;;25.10;57.90;;;;;;5094346;28;20020;-80
2024/04/06 12:17:29;;;;;;;12.55;3.30;;;25.10;56.80;;;;;;5098192;28;20400;-79
2024/04/06 12:19:55;;;;;;;9.90;3.10;;;25.10;56.90;;;;;;5100908;28;20024;-77
2024/04/06 12:22:21;;;;;;;10.80;3.65;;;25.20;57.00;;;;;;5100840;28;20039;-75
2024/04/06 12:24:48;;;;;;;5.90;2.60;;;25.20;57.40;;;;;;5099737;28;20123;-79
2024/04/06 12:27:17;;;;;;;5.82;2.95;;;25.20;56.40;;;;;;5094604;28;20032;-78
2024/04/06 12:29:47;;;;;;;5.57;2.92;;;25.20;55.70;;;;;;5094941;28;20388;-78
2024/04/06 12:32:13;;;;;;;11.40;3.20;;;25.30;56.00;;;;;;5094394;28;20530;-75
2024/04/06 12:34:39;;;;;;;6.32;2.80;;;25.30;56.00;;;;;;5094488;28;20047;-77